sensor_id;sensor_type;location;lat;lon;timestamp;temperature;humidity
56044;DHT22;41912;51.022;3.664;2023-03-05T00:01:06;7.00;99.90
56044;DHT22;41912;51.022;3.664;2023-03-05T00:03:32;7.00;99.90
56044;DHT22;41912;51.022;3.664;2023-03-05T00:05:58;6.90;99.90
56044;DHT22;41912;51.022;3.664;2023-03-05T00:08:24;6.90;99.90
56044;DHT22;41912;51.022;3.664;2023-03-05T00:11:03;6.90;99.90
56044;DHT22;41912;51.022;3.664;2023-03-05T00:13:30;6.80;99.90
56044;DHT22;41912;51.022;3.664;2023-03-05T00:15:56;6.80;99.90
56044;DHT22;41912;51.022;3.664;2023-03-05T00:18:22;6.80;99.90
56044;DHT22;41912;51.022;3.664;2023-03-05T00:20:48;6.80;99.90
56044;DHT22;41912;51.022;3.664;2023-03-05T00:23:14;6.80;99.90
56044;DHT22;41912;51.022;3.664;2023-03-05T00:25:39;6.80;99.90
56044;DHT22;41912;51.022;3.664;2023-03-05T00:28:06;6.80;99.90
56044;DHT22;41912;51.022;3.664;2023-03-05T00:30:33;6.80;99.90
56044;DHT22;41912;51.022;3.664;2023-03-05T00:32:59;6.80;99.90
56044;DHT22;41912;51.022;3.664;2023-03-05T00:35:25;6.70;99.90
56044;DHT22;41912;51.022;3.664;2023-03-05T00:37:51;6.70;99.90
56044;DHT22;41912;51.022;3.664;2023-03-05T00:40:17;6.70;99.90
56044;DHT22;41912;51.022;3.664;2023-03-05T00:42:43;6.70;99.90
56044;DHT22;41912;51.022;3.664;2023-03-05T00:45:09;6.60;99.90
56044;DHT22;41912;51.022;3.664;2023-03-05T00:47:35;6.60;99.90
56044;DHT22;41912;51.022;3.664;2023-03-05T00:50:02;6.60;99.90
56044;DHT22;41912;51.022;3.664;2023-03-05T00:52:28;6.50;99.90
56044;DHT22;41912;51.022;3.664;2023-03-05T00:54:54;6.50;99.90
56044;DHT22;41912;51.022;3.664;2023-03-05T00:57:19;6.50;99.90
56044;DHT22;41912;51.022;3.664;2023-03-05T00:59:45;6.50;99.90
56044;DHT22;41912;51.022;3.664;2023-03-05T01:02:11;6.40;99.90
56044;DHT22;41912;51.022;3.664;2023-03-05T01:04:36;6.40;99.90
56044;DHT22;41912;51.022;3.664;2023-03-05T01:07:02;6.40;99.90
56044;DHT22;41912;51.022;3.664;2023-03-05T01:09:29;6.40;99.90
56044;DHT22;41912;51.022;3.664;2023-03-05T01:11:55;6.40;99.90
56044;DHT22;41912;51.022;3.664;2023-03-05T01:14:20;6.40;99.90
56044;DHT22;41912;51.022;3.664;2023-03-05T01:16:47;6.40;99.90
56044;DHT22;41912;51.022;3.664;2023-03-05T01:19:13;6.40;99.90
56044;DHT22;41912;51.022;3.664;2023-03-05T01:21:39;6.40;99.90
56044;DHT22;41912;51.022;3.664;2023-03-05T01:24:05;6.40;99.90
56044;DHT22;41912;51.022;3.664;2023-03-05T01:26:31;6.40;99.90
56044;DHT22;41912;51.022;3.664;2023-03-05T01:28:57;6.40;99.90
56044;DHT22;41912;51.022;3.664;2023-03-05T01:31:23;6.40;99.90
56044;DHT22;41912;51.022;3.664;2023-03-05T01:33:53;6.30;99.90
56044;DHT22;41912;51.022;3.664;2023-03-05T01:36:20;6.20;99.90
56044;DHT22;41912;51.022;3.664;2023-03-05T01:38:47;6.30;99.90
56044;DHT22;41912;51.022;3.664;2023-03-05T01:41:14;6.20;99.90
56044;DHT22;41912;51.022;3.664;2023-03-05T01:43:42;6.10;99.90
56044;DHT22;41912;51.022;3.664;2023-03-05T01:48:43;6.10;99.90
56044;DHT22;41912;51.022;3.664;2023-03-05T01:51:10;6.00;99.90
56044;DHT22;41912;51.022;3.664;2023-03-05T01:53:36;6.00;99.90
56044;DHT22;41912;51.022;3.664;2023-03-05T01:56:02;6.00;99.90
56044;DHT22;41912;51.022;3.664;2023-03-05T01:58:27;6.00;99.90
56044;DHT22;41912;51.022;3.664;2023-03-05T02:00:55;6.00;99.90
56044;DHT22;41912;51.022;3.664;2023-03-05T02:03:22;6.00;99.90
56044;DHT22;41912;51.022;3.664;2023-03-05T02:05:48;6.00;99.90
56044;DHT22;41912;51.022;3.664;2023-03-05T02:08:16;6.00;99.90
56044;DHT22;41912;51.022;3.664;2023-03-05T02:10:45;6.00;99.90
56044;DHT22;41912;51.022;3.664;2023-03-05T02:13:21;6.00;99.90
56044;DHT22;41912;51.022;3.664;2023-03-05T02:15:47;6.00;99.90
56044;DHT22;41912;51.022;3.664;2023-03-05T02:18:15;6.00;99.90
56044;DHT22;41912;51.022;3.664;2023-03-05T02:20:50;6.00;99.90
56044;DHT22;41912;51.022;3.664;2023-03-05T02:23:18;6.00;99.90
56044;DHT22;41912;51.022;3.664;2023-03-05T02:25:45;6.00;99.90
56044;DHT22;41912;51.022;3.664;2023-03-05T02:31:28;6.00;99.90
56044;DHT22;41912;51.022;3.664;2023-03-05T02:33:54;6.00;99.90
56044;DHT22;41912;51.022;3.664;2023-03-05T02:36:21;6.00;99.90
56044;DHT22;41912;51.022;3.664;2023-03-05T02:38:47;6.00;99.90
56044;DHT22;41912;51.022;3.664;2023-03-05T02:41:14;6.00;99.90
56044;DHT22;41912;51.022;3.664;2023-03-05T02:43:40;6.00;99.90
56044;DHT22;41912;51.022;3.664;2023-03-05T02:46:06;6.00;99.90
56044;DHT22;41912;51.022;3.664;2023-03-05T02:48:32;6.00;99.90
56044;DHT22;41912;51.022;3.664;2023-03-05T02:50:57;6.00;99.90
56044;DHT22;41912;51.022;3.664;2023-03-05T02:53:24;6.00;99.90
56044;DHT22;41912;51.022;3.664;2023-03-05T02:55:50;6.00;99.90
56044;DHT22;41912;51.022;3.664;2023-03-05T02:58:16;5.90;99.90
56044;DHT22;41912;51.022;3.664;2023-03-05T03:00:42;5.90;99.90
56044;DHT22;41912;51.022;3.664;2023-03-05T03:03:08;6.00;99.90
56044;DHT22;41912;51.022;3.664;2023-03-05T03:05:35;6.00;99.90
56044;DHT22;41912;51.022;3.664;2023-03-05T03:08:01;6.00;99.90
56044;DHT22;41912;51.022;3.664;2023-03-05T03:10:27;6.00;99.90
56044;DHT22;41912;51.022;3.664;2023-03-05T03:12:53;5.90;99.90
56044;DHT22;41912;51.022;3.664;2023-03-05T03:15:18;5.90;99.90
56044;DHT22;41912;51.022;3.664;2023-03-05T03:17:44;5.90;99.90
56044;DHT22;41912;51.022;3.664;2023-03-05T03:20:12;6.00;99.90
56044;DHT22;41912;51.022;3.664;2023-03-05T03:22:42;6.00;99.90
56044;DHT22;41912;51.022;3.664;2023-03-05T03:25:10;6.00;99.90
56044;DHT22;41912;51.022;3.664;2023-03-05T03:27:38;5.90;99.90
56044;DHT22;41912;51.022;3.664;2023-03-05T03:30:04;5.90;99.90
56044;DHT22;41912;51.022;3.664;2023-03-05T03:32:30;5.90;99.90
56044;DHT22;41912;51.022;3.664;2023-03-05T03:34:57;5.90;99.90
56044;DHT22;41912;51.022;3.664;2023-03-05T03:37:22;5.90;99.90
56044;DHT22;41912;51.022;3.664;2023-03-05T03:39:48;6.00;99.90
56044;DHT22;41912;51.022;3.664;2023-03-05T03:42:19;6.00;99.90
56044;DHT22;41912;51.022;3.664;2023-03-05T03:44:45;6.00;99.90
56044;DHT22;41912;51.022;3.664;2023-03-05T03:47:11;6.00;99.90
56044;DHT22;41912;51.022;3.664;2023-03-05T03:49:36;6.00;99.90
56044;DHT22;41912;51.022;3.664;2023-03-05T03:52:02;5.90;99.90
56044;DHT22;41912;51.022;3.664;2023-03-05T03:54:28;5.90;99.90
56044;DHT22;41912;51.022;3.664;2023-03-05T03:56:54;6.00;99.90
56044;DHT22;41912;51.022;3.664;2023-03-05T03:59:19;5.90;99.90
56044;DHT22;41912;51.022;3.664;2023-03-05T04:01:45;5.90;99.90
56044;DHT22;41912;51.022;3.664;2023-03-05T04:04:12;5.90;99.90
56044;DHT22;41912;51.022;3.664;2023-03-05T04:06:38;5.90;99.90
56044;DHT22;41912;51.022;3.664;2023-03-05T04:09:04;6.00;99.90
56044;DHT22;41912;51.022;3.664;2023-03-05T04:11:30;5.90;99.90
56044;DHT22;41912;51.022;3.664;2023-03-05T04:13:56;6.00;99.90
56044;DHT22;41912;51.022;3.664;2023-03-05T04:16:22;6.00;99.90
56044;DHT22;41912;51.022;3.664;2023-03-05T04:18:47;5.90;99.90
56044;DHT22;41912;51.022;3.664;2023-03-05T04:21:13;5.90;99.90
56044;DHT22;41912;51.022;3.664;2023-03-05T04:23:39;5.90;99.90
56044;DHT22;41912;51.022;3.664;2023-03-05T04:26:05;6.00;99.90
56044;DHT22;41912;51.022;3.664;2023-03-05T04:28:30;6.00;99.90
56044;DHT22;41912;51.022;3.664;2023-03-05T04:30:56;6.00;99.90
56044;DHT22;41912;51.022;3.664;2023-03-05T04:33:22;6.00;99.90
56044;DHT22;41912;51.022;3.664;2023-03-05T04:35:48;5.90;99.90
56044;DHT22;41912;51.022;3.664;2023-03-05T04:38:14;6.00;99.90
56044;DHT22;41912;51.022;3.664;2023-03-05T04:40:40;5.90;99.90
56044;DHT22;41912;51.022;3.664;2023-03-05T04:43:06;6.00;99.90
56044;DHT22;41912;51.022;3.664;2023-03-05T04:45:31;5.90;99.90
56044;DHT22;41912;51.022;3.664;2023-03-05T04:47:57;6.00;99.90
56044;DHT22;41912;51.022;3.664;2023-03-05T04:50:23;5.90;99.90
56044;DHT22;41912;51.022;3.664;2023-03-05T04:52:49;5.90;99.90
56044;DHT22;41912;51.022;3.664;2023-03-05T04:55:16;5.90;99.90
56044;DHT22;41912;51.022;3.664;2023-03-05T04:57:42;6.00;99.90
56044;DHT22;41912;51.022;3.664;2023-03-05T05:00:10;5.90;99.90
56044;DHT22;41912;51.022;3.664;2023-03-05T05:02:42;6.00;99.90
56044;DHT22;41912;51.022;3.664;2023-03-05T05:05:13;6.00;99.90
56044;DHT22;41912;51.022;3.664;2023-03-05T05:07:39;6.00;99.90
56044;DHT22;41912;51.022;3.664;2023-03-05T05:10:06;6.00;99.90
56044;DHT22;41912;51.022;3.664;2023-03-05T05:12:32;6.00;99.90
56044;DHT22;41912;51.022;3.664;2023-03-05T05:14:58;6.00;99.90
56044;DHT22;41912;51.022;3.664;2023-03-05T05:17:25;6.00;99.90
56044;DHT22;41912;51.022;3.664;2023-03-05T05:19:51;6.00;99.90
56044;DHT22;41912;51.022;3.664;2023-03-05T05:22:16;6.00;99.90
56044;DHT22;41912;51.022;3.664;2023-03-05T05:24:42;6.00;99.90
56044;DHT22;41912;51.022;3.664;2023-03-05T05:27:08;6.00;99.90
56044;DHT22;41912;51.022;3.664;2023-03-05T05:29:34;6.00;99.90
56044;DHT22;41912;51.022;3.664;2023-03-05T05:31:59;6.00;99.90
56044;DHT22;41912;51.022;3.664;2023-03-05T05:34:25;6.00;99.90
56044;DHT22;41912;51.022;3.664;2023-03-05T05:36:52;6.00;99.90
56044;DHT22;41912;51.022;3.664;2023-03-05T05:39:18;6.00;99.90
56044;DHT22;41912;51.022;3.664;2023-03-05T05:41:44;6.00;99.90
56044;DHT22;41912;51.022;3.664;2023-03-05T05:44:09;6.00;99.90
56044;DHT22;41912;51.022;3.664;2023-03-05T05:46:35;6.00;99.90
56044;DHT22;41912;51.022;3.664;2023-03-05T05:49:01;6.00;99.90
56044;DHT22;41912;51.022;3.664;2023-03-05T05:51:26;6.00;99.90
56044;DHT22;41912;51.022;3.664;2023-03-05T05:53:52;6.00;99.90
56044;DHT22;41912;51.022;3.664;2023-03-05T05:56:18;6.00;99.90
56044;DHT22;41912;51.022;3.664;2023-03-05T05:58:45;6.00;99.90
56044;DHT22;41912;51.022;3.664;2023-03-05T06:01:24;6.00;99.90
56044;DHT22;41912;51.022;3.664;2023-03-05T06:03:50;6.00;99.90
56044;DHT22;41912;51.022;3.664;2023-03-05T06:06:18;6.00;99.90
56044;DHT22;41912;51.022;3.664;2023-03-05T06:08:44;6.00;99.90
56044;DHT22;41912;51.022;3.664;2023-03-05T06:11:10;6.10;99.90
56044;DHT22;41912;51.022;3.664;2023-03-05T06:13:37;5.90;99.90
56044;DHT22;41912;51.022;3.664;2023-03-05T06:16:05;6.00;99.90
56044;DHT22;41912;51.022;3.664;2023-03-05T06:18:32;6.00;99.90
56044;DHT22;41912;51.022;3.664;2023-03-05T06:21:04;6.10;99.90
56044;DHT22;41912;51.022;3.664;2023-03-05T06:23:30;5.90;99.90
56044;DHT22;41912;51.022;3.664;2023-03-05T06:25:58;5.90;99.90
56044;DHT22;41912;51.022;3.664;2023-03-05T06:28:25;6.00;99.90
56044;DHT22;41912;51.022;3.664;2023-03-05T06:31:01;5.90;99.90
56044;DHT22;41912;51.022;3.664;2023-03-05T06:33:27;5.90;99.90
56044;DHT22;41912;51.022;3.664;2023-03-05T06:35:53;5.90;99.90
56044;DHT22;41912;51.022;3.664;2023-03-05T06:38:19;5.90;99.90
56044;DHT22;41912;51.022;3.664;2023-03-05T06:40:44;6.00;99.90
56044;DHT22;41912;51.022;3.664;2023-03-05T06:43:10;5.90;99.90
56044;DHT22;41912;51.022;3.664;2023-03-05T06:45:36;5.90;99.90
56044;DHT22;41912;51.022;3.664;2023-03-05T06:48:02;5.90;99.90
56044;DHT22;41912;51.022;3.664;2023-03-05T06:50:27;5.90;99.90
56044;DHT22;41912;51.022;3.664;2023-03-05T06:52:53;5.90;99.90
56044;DHT22;41912;51.022;3.664;2023-03-05T06:55:19;6.00;99.90
56044;DHT22;41912;51.022;3.664;2023-03-05T06:57:45;6.00;99.90
56044;DHT22;41912;51.022;3.664;2023-03-05T07:00:12;5.90;99.90
56044;DHT22;41912;51.022;3.664;2023-03-05T07:02:37;6.00;99.90
56044;DHT22;41912;51.022;3.664;2023-03-05T07:05:04;5.90;99.90
56044;DHT22;41912;51.022;3.664;2023-03-05T07:07:31;6.00;99.90
56044;DHT22;41912;51.022;3.664;2023-03-05T07:09:56;5.90;99.90
56044;DHT22;41912;51.022;3.664;2023-03-05T07:12:22;6.00;99.90
56044;DHT22;41912;51.022;3.664;2023-03-05T07:14:48;5.90;99.90
56044;DHT22;41912;51.022;3.664;2023-03-05T07:17:13;6.00;99.90
56044;DHT22;41912;51.022;3.664;2023-03-05T07:19:41;6.00;99.90
56044;DHT22;41912;51.022;3.664;2023-03-05T07:22:08;6.00;99.90
56044;DHT22;41912;51.022;3.664;2023-03-05T07:24:34;6.00;99.90
56044;DHT22;41912;51.022;3.664;2023-03-05T07:26:59;6.00;99.90
56044;DHT22;41912;51.022;3.664;2023-03-05T07:29:26;6.00;99.90
56044;DHT22;41912;51.022;3.664;2023-03-05T07:31:53;6.00;99.90
56044;DHT22;41912;51.022;3.664;2023-03-05T07:34:19;6.00;99.90
56044;DHT22;41912;51.022;3.664;2023-03-05T07:36:45;6.00;99.90
56044;DHT22;41912;51.022;3.664;2023-03-05T07:39:14;6.10;99.90
56044;DHT22;41912;51.022;3.664;2023-03-05T07:41:39;6.10;99.90
56044;DHT22;41912;51.022;3.664;2023-03-05T07:44:05;6.10;99.90
56044;DHT22;41912;51.022;3.664;2023-03-05T07:46:32;6.10;99.90
56044;DHT22;41912;51.022;3.664;2023-03-05T07:48:58;6.10;99.90
56044;DHT22;41912;51.022;3.664;2023-03-05T07:51:25;6.20;99.90
56044;DHT22;41912;51.022;3.664;2023-03-05T07:53:53;6.20;99.90
56044;DHT22;41912;51.022;3.664;2023-03-05T07:56:24;6.20;99.90
56044;DHT22;41912;51.022;3.664;2023-03-05T07:58:50;6.20;99.90
56044;DHT22;41912;51.022;3.664;2023-03-05T08:01:16;6.20;99.90
56044;DHT22;41912;51.022;3.664;2023-03-05T08:03:42;6.20;99.90
56044;DHT22;41912;51.022;3.664;2023-03-05T08:06:09;6.30;99.90
56044;DHT22;41912;51.022;3.664;2023-03-05T08:08:35;6.30;99.90
56044;DHT22;41912;51.022;3.664;2023-03-05T08:11:10;6.30;99.90
56044;DHT22;41912;51.022;3.664;2023-03-05T08:13:36;6.40;99.90
56044;DHT22;41912;51.022;3.664;2023-03-05T08:16:06;6.40;99.90
56044;DHT22;41912;51.022;3.664;2023-03-05T08:18:32;6.40;99.90
56044;DHT22;41912;51.022;3.664;2023-03-05T08:20:58;6.40;99.90
56044;DHT22;41912;51.022;3.664;2023-03-05T08:23:24;6.40;99.90
56044;DHT22;41912;51.022;3.664;2023-03-05T08:25:50;6.40;99.90
56044;DHT22;41912;51.022;3.664;2023-03-05T08:28:15;6.40;99.90
56044;DHT22;41912;51.022;3.664;2023-03-05T08:30:44;6.50;99.90
56044;DHT22;41912;51.022;3.664;2023-03-05T08:33:10;6.50;99.90
56044;DHT22;41912;51.022;3.664;2023-03-05T08:35:36;6.50;99.90
56044;DHT22;41912;51.022;3.664;2023-03-05T08:38:03;6.50;99.90
56044;DHT22;41912;51.022;3.664;2023-03-05T08:40:28;6.50;99.90
56044;DHT22;41912;51.022;3.664;2023-03-05T08:42:54;6.50;99.90
56044;DHT22;41912;51.022;3.664;2023-03-05T08:45:20;6.40;99.90
56044;DHT22;41912;51.022;3.664;2023-03-05T08:47:45;6.40;99.90
56044;DHT22;41912;51.022;3.664;2023-03-05T08:50:11;6.40;99.90
56044;DHT22;41912;51.022;3.664;2023-03-05T08:52:37;6.40;99.90
56044;DHT22;41912;51.022;3.664;2023-03-05T08:55:03;6.50;99.90
56044;DHT22;41912;51.022;3.664;2023-03-05T08:57:28;6.50;99.90
56044;DHT22;41912;51.022;3.664;2023-03-05T08:59:54;6.50;99.90
56044;DHT22;41912;51.022;3.664;2023-03-05T09:02:20;6.60;99.90
56044;DHT22;41912;51.022;3.664;2023-03-05T09:04:45;6.70;99.90
56044;DHT22;41912;51.022;3.664;2023-03-05T09:07:11;6.60;99.90
56044;DHT22;41912;51.022;3.664;2023-03-05T09:09:37;6.60;99.90
56044;DHT22;41912;51.022;3.664;2023-03-05T09:12:03;6.70;99.90
56044;DHT22;41912;51.022;3.664;2023-03-05T09:14:29;6.70;99.90
56044;DHT22;41912;51.022;3.664;2023-03-05T09:16:56;6.80;99.90
56044;DHT22;41912;51.022;3.664;2023-03-05T09:19:21;6.80;99.90
56044;DHT22;41912;51.022;3.664;2023-03-05T09:21:47;6.80;99.90
56044;DHT22;41912;51.022;3.664;2023-03-05T09:24:13;6.80;99.90
56044;DHT22;41912;51.022;3.664;2023-03-05T09:26:38;6.80;99.90
56044;DHT22;41912;51.022;3.664;2023-03-05T09:29:07;6.80;99.90
56044;DHT22;41912;51.022;3.664;2023-03-05T09:31:34;6.80;99.90
56044;DHT22;41912;51.022;3.664;2023-03-05T09:34:00;6.80;99.90
56044;DHT22;41912;51.022;3.664;2023-03-05T09:36:28;6.80;99.90
56044;DHT22;41912;51.022;3.664;2023-03-05T09:38:54;6.80;99.90
56044;DHT22;41912;51.022;3.664;2023-03-05T09:46:51;6.70;99.90
56044;DHT22;41912;51.022;3.664;2023-03-05T09:52:02;6.80;99.90
56044;DHT22;41912;51.022;3.664;2023-03-05T09:54:44;6.80;99.90
56044;DHT22;41912;51.022;3.664;2023-03-05T09:57:24;6.80;99.90
56044;DHT22;41912;51.022;3.664;2023-03-05T10:00:08;6.80;99.90
56044;DHT22;41912;51.022;3.664;2023-03-05T10:02:49;6.80;99.90
56044;DHT22;41912;51.022;3.664;2023-03-05T10:07:59;6.80;99.90
56044;DHT22;41912;51.022;3.664;2023-03-05T10:10:37;6.80;99.90
56044;DHT22;41912;51.022;3.664;2023-03-05T10:13:13;6.90;99.90
56044;DHT22;41912;51.022;3.664;2023-03-05T10:15:47;6.90;99.90
56044;DHT22;41912;51.022;3.664;2023-03-05T10:18:36;6.90;99.90
56044;DHT22;41912;51.022;3.664;2023-03-05T10:21:17;6.90;99.90
56044;DHT22;41912;51.022;3.664;2023-03-05T10:29:21;6.90;99.90
56044;DHT22;41912;51.022;3.664;2023-03-05T10:35:16;6.80;99.90
56044;DHT22;41912;51.022;3.664;2023-03-05T10:40:43;6.80;99.90
56044;DHT22;41912;51.022;3.664;2023-03-05T10:43:23;6.90;99.90
56044;DHT22;41912;51.022;3.664;2023-03-05T10:45:53;6.90;99.90
56044;DHT22;41912;51.022;3.664;2023-03-05T10:48:38;7.00;99.90
56044;DHT22;41912;51.022;3.664;2023-03-05T10:51:16;7.00;99.90
56044;DHT22;41912;51.022;3.664;2023-03-05T10:56:20;7.00;99.90
56044;DHT22;41912;51.022;3.664;2023-03-05T10:58:46;7.10;99.90
56044;DHT22;41912;51.022;3.664;2023-03-05T11:06:13;7.30;99.90
56044;DHT22;41912;51.022;3.664;2023-03-05T11:08:39;7.40;99.90
56044;DHT22;41912;51.022;3.664;2023-03-05T11:13:58;7.50;99.90
56044;DHT22;41912;51.022;3.664;2023-03-05T11:16:29;7.50;99.90
56044;DHT22;41912;51.022;3.664;2023-03-05T11:19:20;7.50;99.90
56044;DHT22;41912;51.022;3.664;2023-03-05T11:22:21;7.50;99.90
56044;DHT22;41912;51.022;3.664;2023-03-05T11:25:16;7.50;99.90
56044;DHT22;41912;51.022;3.664;2023-03-05T11:27:53;7.60;99.90
56044;DHT22;41912;51.022;3.664;2023-03-05T11:30:31;7.60;99.90
56044;DHT22;41912;51.022;3.664;2023-03-05T11:33:22;7.60;99.90
56044;DHT22;41912;51.022;3.664;2023-03-05T11:35:50;7.70;99.90
56044;DHT22;41912;51.022;3.664;2023-03-05T11:38:26;7.60;99.90
56044;DHT22;41912;51.022;3.664;2023-03-05T11:40:54;7.70;99.90
56044;DHT22;41912;51.022;3.664;2023-03-05T11:43:23;7.70;99.90
56044;DHT22;41912;51.022;3.664;2023-03-05T11:45:52;7.70;99.90
56044;DHT22;41912;51.022;3.664;2023-03-05T11:48:24;7.70;99.90
56044;DHT22;41912;51.022;3.664;2023-03-05T11:50:58;7.70;99.90
56044;DHT22;41912;51.022;3.664;2023-03-05T11:53:30;7.60;99.90
56044;DHT22;41912;51.022;3.664;2023-03-05T12:00:57;7.10;99.90
56044;DHT22;41912;51.022;3.664;2023-03-05T12:03:35;7.00;99.90
56044;DHT22;41912;51.022;3.664;2023-03-05T12:08:41;7.00;99.90
56044;DHT22;41912;51.022;3.664;2023-03-05T12:11:22;7.00;99.90
56044;DHT22;41912;51.022;3.664;2023-03-05T12:14:00;7.00;99.90
56044;DHT22;41912;51.022;3.664;2023-03-05T12:16:49;7.10;99.90
56044;DHT22;41912;51.022;3.664;2023-03-05T12:22:14;7.10;99.90
56044;DHT22;41912;51.022;3.664;2023-03-05T12:24:40;7.20;99.90
56044;DHT22;41912;51.022;3.664;2023-03-05T12:27:09;7.10;99.90
56044;DHT22;41912;51.022;3.664;2023-03-05T12:34:49;7.40;99.90
56044;DHT22;41912;51.022;3.664;2023-03-05T12:39:57;7.40;99.90
56044;DHT22;41912;51.022;3.664;2023-03-05T12:55:37;7.60;99.90
56044;DHT22;41912;51.022;3.664;2023-03-05T13:03:33;7.60;99.90
56044;DHT22;41912;51.022;3.664;2023-03-05T13:06:00;7.60;99.90
56044;DHT22;41912;51.022;3.664;2023-03-05T13:08:33;7.70;99.90
56044;DHT22;41912;51.022;3.664;2023-03-05T13:11:01;7.70;99.90
56044;DHT22;41912;51.022;3.664;2023-03-05T13:13:30;7.80;99.90
56044;DHT22;41912;51.022;3.664;2023-03-05T13:15:57;7.80;99.90
56044;DHT22;41912;51.022;3.664;2023-03-05T13:18:30;7.80;99.90
56044;DHT22;41912;51.022;3.664;2023-03-05T13:23:27;7.90;99.90
56044;DHT22;41912;51.022;3.664;2023-03-05T13:26:12;7.90;99.90
56044;DHT22;41912;51.022;3.664;2023-03-05T13:31:27;8.00;99.90
56044;DHT22;41912;51.022;3.664;2023-03-05T13:34:04;8.00;99.90
56044;DHT22;41912;51.022;3.664;2023-03-05T13:36:32;7.90;99.90
56044;DHT22;41912;51.022;3.664;2023-03-05T13:38:58;7.90;99.90
56044;DHT22;41912;51.022;3.664;2023-03-05T13:41:28;7.90;99.90
56044;DHT22;41912;51.022;3.664;2023-03-05T13:44:03;7.90;99.90
56044;DHT22;41912;51.022;3.664;2023-03-05T13:46:34;7.90;99.90
56044;DHT22;41912;51.022;3.664;2023-03-05T13:51:52;7.80;99.90
56044;DHT22;41912;51.022;3.664;2023-03-05T13:54:19;7.80;99.90
56044;DHT22;41912;51.022;3.664;2023-03-05T13:56:58;7.80;99.90
56044;DHT22;41912;51.022;3.664;2023-03-05T13:59:29;7.80;99.90
56044;DHT22;41912;51.022;3.664;2023-03-05T14:02:16;7.70;99.90
56044;DHT22;41912;51.022;3.664;2023-03-05T14:04:44;7.70;99.90
56044;DHT22;41912;51.022;3.664;2023-03-05T14:09:47;7.60;99.90
56044;DHT22;41912;51.022;3.664;2023-03-05T14:14:43;7.50;99.90
56044;DHT22;41912;51.022;3.664;2023-03-05T14:17:38;7.40;99.90
56044;DHT22;41912;51.022;3.664;2023-03-05T14:22:36;7.40;99.90
56044;DHT22;41912;51.022;3.664;2023-03-05T14:25:06;7.40;99.90
56044;DHT22;41912;51.022;3.664;2023-03-05T14:27:48;7.40;99.90
56044;DHT22;41912;51.022;3.664;2023-03-05T14:30:18;7.50;99.90
56044;DHT22;41912;51.022;3.664;2023-03-05T14:32:45;7.50;99.90
56044;DHT22;41912;51.022;3.664;2023-03-05T14:35:20;7.50;99.90
56044;DHT22;41912;51.022;3.664;2023-03-05T14:37:48;7.50;99.90
56044;DHT22;41912;51.022;3.664;2023-03-05T14:42:52;7.50;99.90
56044;DHT22;41912;51.022;3.664;2023-03-05T14:45:25;7.50;99.90
56044;DHT22;41912;51.022;3.664;2023-03-05T14:47:52;7.50;99.90
56044;DHT22;41912;51.022;3.664;2023-03-05T14:50:27;7.50;99.90
56044;DHT22;41912;51.022;3.664;2023-03-05T14:52:57;7.60;99.90
56044;DHT22;41912;51.022;3.664;2023-03-05T14:55:26;7.60;99.90
56044;DHT22;41912;51.022;3.664;2023-03-05T14:57:56;7.60;99.90
56044;DHT22;41912;51.022;3.664;2023-03-05T15:00:25;7.60;99.90
56044;DHT22;41912;51.022;3.664;2023-03-05T15:02:52;7.60;99.90
56044;DHT22;41912;51.022;3.664;2023-03-05T15:05:18;7.60;99.90
56044;DHT22;41912;51.022;3.664;2023-03-05T15:07:45;7.60;99.90
56044;DHT22;41912;51.022;3.664;2023-03-05T15:10:14;7.60;99.90
56044;DHT22;41912;51.022;3.664;2023-03-05T15:12:40;7.60;99.90
56044;DHT22;41912;51.022;3.664;2023-03-05T15:15:07;7.60;99.90
56044;DHT22;41912;51.022;3.664;2023-03-05T15:17:35;7.60;99.90
56044;DHT22;41912;51.022;3.664;2023-03-05T15:20:02;7.60;99.90
56044;DHT22;41912;51.022;3.664;2023-03-05T15:22:32;7.70;99.90
56044;DHT22;41912;51.022;3.664;2023-03-05T15:24:57;7.60;99.90
56044;DHT22;41912;51.022;3.664;2023-03-05T15:27:23;7.60;99.90
56044;DHT22;41912;51.022;3.664;2023-03-05T15:29:49;7.80;99.90
56044;DHT22;41912;51.022;3.664;2023-03-05T15:32:14;7.60;99.90
56044;DHT22;41912;51.022;3.664;2023-03-05T15:34:40;7.70;99.90
56044;DHT22;41912;51.022;3.664;2023-03-05T15:37:06;7.60;99.90
56044;DHT22;41912;51.022;3.664;2023-03-05T15:39:31;7.60;99.90
56044;DHT22;41912;51.022;3.664;2023-03-05T15:41:57;7.60;99.90
56044;DHT22;41912;51.022;3.664;2023-03-05T15:44:23;7.60;99.90
56044;DHT22;41912;51.022;3.664;2023-03-05T15:46:48;7.60;99.90
56044;DHT22;41912;51.022;3.664;2023-03-05T15:49:14;7.60;99.90
56044;DHT22;41912;51.022;3.664;2023-03-05T15:51:40;7.70;99.90
56044;DHT22;41912;51.022;3.664;2023-03-05T15:54:06;7.70;99.90
56044;DHT22;41912;51.022;3.664;2023-03-05T15:56:32;7.60;99.90
56044;DHT22;41912;51.022;3.664;2023-03-05T15:58:57;7.60;99.90
56044;DHT22;41912;51.022;3.664;2023-03-05T16:01:23;7.60;99.90
56044;DHT22;41912;51.022;3.664;2023-03-05T16:03:50;7.60;99.90
56044;DHT22;41912;51.022;3.664;2023-03-05T16:06:16;7.60;99.90
56044;DHT22;41912;51.022;3.664;2023-03-05T16:08:47;7.60;99.90
56044;DHT22;41912;51.022;3.664;2023-03-05T16:11:14;7.60;99.90
56044;DHT22;41912;51.022;3.664;2023-03-05T16:13:41;7.50;99.90
56044;DHT22;41912;51.022;3.664;2023-03-05T16:16:07;7.50;99.90
56044;DHT22;41912;51.022;3.664;2023-03-05T16:18:40;7.50;99.90
56044;DHT22;41912;51.022;3.664;2023-03-05T16:21:06;7.50;99.90
56044;DHT22;41912;51.022;3.664;2023-03-05T16:23:32;7.50;99.90
56044;DHT22;41912;51.022;3.664;2023-03-05T16:25:57;7.50;99.90
56044;DHT22;41912;51.022;3.664;2023-03-05T16:28:23;7.50;99.90
56044;DHT22;41912;51.022;3.664;2023-03-05T16:30:53;7.50;99.90
56044;DHT22;41912;51.022;3.664;2023-03-05T16:33:19;7.50;99.90
56044;DHT22;41912;51.022;3.664;2023-03-05T16:35:45;7.40;99.90
56044;DHT22;41912;51.022;3.664;2023-03-05T16:38:10;7.40;99.90
56044;DHT22;41912;51.022;3.664;2023-03-05T16:40:37;7.40;99.90
56044;DHT22;41912;51.022;3.664;2023-03-05T16:43:03;7.40;99.90
56044;DHT22;41912;51.022;3.664;2023-03-05T16:45:28;7.40;99.90
56044;DHT22;41912;51.022;3.664;2023-03-05T16:47:54;7.40;99.90
56044;DHT22;41912;51.022;3.664;2023-03-05T16:50:20;7.40;99.90
56044;DHT22;41912;51.022;3.664;2023-03-05T16:52:45;7.40;99.90
56044;DHT22;41912;51.022;3.664;2023-03-05T16:55:11;7.40;99.90
56044;DHT22;41912;51.022;3.664;2023-03-05T16:57:38;7.40;99.90
56044;DHT22;41912;51.022;3.664;2023-03-05T17:00:04;7.40;99.90
56044;DHT22;41912;51.022;3.664;2023-03-05T17:02:30;7.40;99.90
56044;DHT22;41912;51.022;3.664;2023-03-05T17:04:56;7.40;99.90
56044;DHT22;41912;51.022;3.664;2023-03-05T17:07:22;7.40;99.90
56044;DHT22;41912;51.022;3.664;2023-03-05T17:09:49;7.40;99.90
56044;DHT22;41912;51.022;3.664;2023-03-05T17:12:17;7.40;99.90
56044;DHT22;41912;51.022;3.664;2023-03-05T17:14:43;7.30;99.90
56044;DHT22;41912;51.022;3.664;2023-03-05T17:17:09;7.30;99.90
56044;DHT22;41912;51.022;3.664;2023-03-05T17:19:35;7.30;99.90
56044;DHT22;41912;51.022;3.664;2023-03-05T17:22:01;7.30;99.90
56044;DHT22;41912;51.022;3.664;2023-03-05T17:24:27;7.30;99.90